sensor_id;sensor_type;location;lat;lon;timestamp;temperature;humidity
53208;DHT22;39093;52.788;6.940;2023-07-13T00:00:43;17.40;99.90
53208;DHT22;39093;52.788;6.940;2023-07-13T00:03:10;17.40;99.90
53208;DHT22;39093;52.788;6.940;2023-07-13T00:05:40;17.40;99.90
53208;DHT22;39093;52.788;6.940;2023-07-13T00:08:08;17.40;99.90
53208;DHT22;39093;52.788;6.940;2023-07-13T00:10:42;17.30;99.90
53208;DHT22;39093;52.788;6.940;2023-07-13T00:13:09;17.30;99.90
53208;DHT22;39093;52.788;6.940;2023-07-13T00:15:36;17.30;99.90
53208;DHT22;39093;52.788;6.940;2023-07-13T00:18:03;17.20;99.90
53208;DHT22;39093;52.788;6.940;2023-07-13T00:20:30;17.20;99.90
53208;DHT22;39093;52.788;6.940;2023-07-13T00:22:57;17.20;99.90
53208;DHT22;39093;52.788;6.940;2023-07-13T00:25:24;17.10;99.90
53208;DHT22;39093;52.788;6.940;2023-07-13T00:27:56;17.10;99.90
53208;DHT22;39093;52.788;6.940;2023-07-13T00:30:23;17.10;99.90
53208;DHT22;39093;52.788;6.940;2023-07-13T00:32:50;17.00;99.90
53208;DHT22;39093;52.788;6.940;2023-07-13T00:35:30;17.00;99.90
53208;DHT22;39093;52.788;6.940;2023-07-13T00:37:58;17.00;99.90
53208;DHT22;39093;52.788;6.940;2023-07-13T00:40:24;16.90;99.90
53208;DHT22;39093;52.788;6.940;2023-07-13T00:42:52;16.90;99.90
53208;DHT22;39093;52.788;6.940;2023-07-13T00:47:47;16.80;99.90
53208;DHT22;39093;52.788;6.940;2023-07-13T00:50:15;16.80;99.90
53208;DHT22;39093;52.788;6.940;2023-07-13T00:52:45;16.80;99.90
53208;DHT22;39093;52.788;6.940;2023-07-13T00:55:13;16.80;99.90
53208;DHT22;39093;52.788;6.940;2023-07-13T00:57:44;16.80;99.90
53208;DHT22;39093;52.788;6.940;2023-07-13T01:00:11;16.80;99.90
53208;DHT22;39093;52.788;6.940;2023-07-13T01:02:41;16.80;99.90
53208;DHT22;39093;52.788;6.940;2023-07-13T01:05:13;16.70;99.90
53208;DHT22;39093;52.788;6.940;2023-07-13T01:07:41;16.80;99.90
53208;DHT22;39093;52.788;6.940;2023-07-13T01:10:12;16.80;99.90
53208;DHT22;39093;52.788;6.940;2023-07-13T01:12:39;16.70;99.90
53208;DHT22;39093;52.788;6.940;2023-07-13T01:15:36;16.70;99.90
53208;DHT22;39093;52.788;6.940;2023-07-13T01:18:07;16.70;99.90
53208;DHT22;39093;52.788;6.940;2023-07-13T01:20:39;16.70;99.90
53208;DHT22;39093;52.788;6.940;2023-07-13T01:23:11;16.70;99.90
53208;DHT22;39093;52.788;6.940;2023-07-13T01:25:39;16.80;99.90
53208;DHT22;39093;52.788;6.940;2023-07-13T01:28:07;16.70;99.90
53208;DHT22;39093;52.788;6.940;2023-07-13T01:30:38;16.70;99.90
53208;DHT22;39093;52.788;6.940;2023-07-13T01:33:08;16.70;99.90
53208;DHT22;39093;52.788;6.940;2023-07-13T01:35:36;16.80;99.90
53208;DHT22;39093;52.788;6.940;2023-07-13T01:38:04;16.80;99.90
53208;DHT22;39093;52.788;6.940;2023-07-13T01:40:32;16.80;99.90
53208;DHT22;39093;52.788;6.940;2023-07-13T01:43:00;16.80;99.90
53208;DHT22;39093;52.788;6.940;2023-07-13T01:45:28;16.80;99.90
53208;DHT22;39093;52.788;6.940;2023-07-13T01:47:55;16.80;99.90
53208;DHT22;39093;52.788;6.940;2023-07-13T01:50:22;16.90;99.90
53208;DHT22;39093;52.788;6.940;2023-07-13T01:52:49;16.80;99.90
53208;DHT22;39093;52.788;6.940;2023-07-13T01:55:16;16.80;99.90
53208;DHT22;39093;52.788;6.940;2023-07-13T01:57:43;16.80;99.90
53208;DHT22;39093;52.788;6.940;2023-07-13T02:00:11;16.80;99.90
53208;DHT22;39093;52.788;6.940;2023-07-13T02:02:38;16.80;99.90
53208;DHT22;39093;52.788;6.940;2023-07-13T02:05:06;16.80;99.90
53208;DHT22;39093;52.788;6.940;2023-07-13T02:07:33;16.80;99.90
53208;DHT22;39093;52.788;6.940;2023-07-13T02:10:00;16.80;99.90
53208;DHT22;39093;52.788;6.940;2023-07-13T02:12:27;16.80;99.90
53208;DHT22;39093;52.788;6.940;2023-07-13T02:14:54;16.70;99.90
53208;DHT22;39093;52.788;6.940;2023-07-13T02:17:21;16.80;99.90
53208;DHT22;39093;52.788;6.940;2023-07-13T02:19:48;16.80;99.90
53208;DHT22;39093;52.788;6.940;2023-07-13T02:22:15;16.80;99.90
53208;DHT22;39093;52.788;6.940;2023-07-13T02:24:42;16.90;99.90
53208;DHT22;39093;52.788;6.940;2023-07-13T02:27:09;16.90;99.90
53208;DHT22;39093;52.788;6.940;2023-07-13T02:29:36;16.80;99.90
53208;DHT22;39093;52.788;6.940;2023-07-13T02:32:03;16.80;99.90
53208;DHT22;39093;52.788;6.940;2023-07-13T02:34:30;16.80;99.90
53208;DHT22;39093;52.788;6.940;2023-07-13T02:36:59;16.80;99.90
53208;DHT22;39093;52.788;6.940;2023-07-13T02:39:26;16.80;99.90
53208;DHT22;39093;52.788;6.940;2023-07-13T02:41:53;16.80;99.90
53208;DHT22;39093;52.788;6.940;2023-07-13T02:44:20;16.80;99.90
53208;DHT22;39093;52.788;6.940;2023-07-13T02:46:47;16.70;99.90
53208;DHT22;39093;52.788;6.940;2023-07-13T02:49:14;16.80;99.90
53208;DHT22;39093;52.788;6.940;2023-07-13T02:51:43;16.70;99.90
53208;DHT22;39093;52.788;6.940;2023-07-13T02:54:10;16.80;99.90
53208;DHT22;39093;52.788;6.940;2023-07-13T02:56:38;16.80;99.90
53208;DHT22;39093;52.788;6.940;2023-07-13T02:59:05;16.70;99.90
53208;DHT22;39093;52.788;6.940;2023-07-13T03:01:32;16.70;99.90
53208;DHT22;39093;52.788;6.940;2023-07-13T03:04:02;16.70;99.90
53208;DHT22;39093;52.788;6.940;2023-07-13T03:06:31;16.70;99.90
53208;DHT22;39093;52.788;6.940;2023-07-13T03:08:59;16.60;99.90
53208;DHT22;39093;52.788;6.940;2023-07-13T03:11:26;16.60;99.90
53208;DHT22;39093;52.788;6.940;2023-07-13T03:13:55;16.60;99.90
53208;DHT22;39093;52.788;6.940;2023-07-13T03:16:22;16.60;99.90
53208;DHT22;39093;52.788;6.940;2023-07-13T03:18:49;16.60;99.90
53208;DHT22;39093;52.788;6.940;2023-07-13T03:21:16;16.60;99.90
53208;DHT22;39093;52.788;6.940;2023-07-13T03:23:43;16.60;99.90
53208;DHT22;39093;52.788;6.940;2023-07-13T03:26:15;16.60;99.90
53208;DHT22;39093;52.788;6.940;2023-07-13T03:28:43;16.60;99.90
53208;DHT22;39093;52.788;6.940;2023-07-13T03:31:14;16.60;99.90
53208;DHT22;39093;52.788;6.940;2023-07-13T03:33:42;16.50;99.90
53208;DHT22;39093;52.788;6.940;2023-07-13T03:36:14;16.50;99.90
53208;DHT22;39093;52.788;6.940;2023-07-13T03:38:42;16.60;99.90
53208;DHT22;39093;52.788;6.940;2023-07-13T03:41:09;16.60;99.90
53208;DHT22;39093;52.788;6.940;2023-07-13T03:43:36;16.50;99.90
53208;DHT22;39093;52.788;6.940;2023-07-13T03:46:05;16.50;99.90
53208;DHT22;39093;52.788;6.940;2023-07-13T03:48:32;16.60;99.90
53208;DHT22;39093;52.788;6.940;2023-07-13T03:50:59;16.50;99.90
53208;DHT22;39093;52.788;6.940;2023-07-13T03:53:26;16.50;99.90
53208;DHT22;39093;52.788;6.940;2023-07-13T03:55:54;16.60;99.90
53208;DHT22;39093;52.788;6.940;2023-07-13T03:58:39;16.50;99.90
53208;DHT22;39093;52.788;6.940;2023-07-13T04:01:08;16.50;99.90
53208;DHT22;39093;52.788;6.940;2023-07-13T04:03:35;16.50;99.90
53208;DHT22;39093;52.788;6.940;2023-07-13T04:06:05;16.40;99.90
53208;DHT22;39093;52.788;6.940;2023-07-13T04:08:34;16.40;99.90
53208;DHT22;39093;52.788;6.940;2023-07-13T04:11:03;16.40;99.90
53208;DHT22;39093;52.788;6.940;2023-07-13T04:13:31;16.40;99.90
53208;DHT22;39093;52.788;6.940;2023-07-13T04:15:58;16.30;99.90
53208;DHT22;39093;52.788;6.940;2023-07-13T04:18:25;16.30;99.90
53208;DHT22;39093;52.788;6.940;2023-07-13T04:20:53;16.30;99.90
53208;DHT22;39093;52.788;6.940;2023-07-13T04:23:20;16.30;99.90
53208;DHT22;39093;52.788;6.940;2023-07-13T04:25:48;16.30;99.90
53208;DHT22;39093;52.788;6.940;2023-07-13T04:28:26;16.20;99.90
53208;DHT22;39093;52.788;6.940;2023-07-13T04:30:53;16.30;99.90
53208;DHT22;39093;52.788;6.940;2023-07-13T04:33:20;16.30;99.90
53208;DHT22;39093;52.788;6.940;2023-07-13T04:35:51;16.30;99.90
53208;DHT22;39093;52.788;6.940;2023-07-13T04:38:25;16.30;99.90
53208;DHT22;39093;52.788;6.940;2023-07-13T04:40:58;16.30;99.90
53208;DHT22;39093;52.788;6.940;2023-07-13T04:43:25;16.40;99.90
53208;DHT22;39093;52.788;6.940;2023-07-13T04:45:53;16.30;99.90
53208;DHT22;39093;52.788;6.940;2023-07-13T04:48:20;16.30;99.90
53208;DHT22;39093;52.788;6.940;2023-07-13T04:50:53;16.30;99.90
53208;DHT22;39093;52.788;6.940;2023-07-13T04:53:21;16.30;99.90
53208;DHT22;39093;52.788;6.940;2023-07-13T04:55:48;16.30;99.90
53208;DHT22;39093;52.788;6.940;2023-07-13T04:58:15;16.30;99.90
53208;DHT22;39093;52.788;6.940;2023-07-13T05:00:42;16.30;99.90
53208;DHT22;39093;52.788;6.940;2023-07-13T05:03:08;16.30;99.90
53208;DHT22;39093;52.788;6.940;2023-07-13T05:05:36;16.20;99.90
53208;DHT22;39093;52.788;6.940;2023-07-13T05:08:03;16.30;99.90
53208;DHT22;39093;52.788;6.940;2023-07-13T05:10:30;16.30;99.90
53208;DHT22;39093;52.788;6.940;2023-07-13T05:12:58;16.30;99.90
53208;DHT22;39093;52.788;6.940;2023-07-13T05:15:25;16.20;99.90
53208;DHT22;39093;52.788;6.940;2023-07-13T05:17:53;16.20;99.90
53208;DHT22;39093;52.788;6.940;2023-07-13T05:20:20;16.20;99.90
53208;DHT22;39093;52.788;6.940;2023-07-13T05:22:47;16.20;99.90
53208;DHT22;39093;52.788;6.940;2023-07-13T05:25:14;16.20;99.90
53208;DHT22;39093;52.788;6.940;2023-07-13T05:27:41;16.20;99.90
53208;DHT22;39093;52.788;6.940;2023-07-13T05:30:08;16.20;99.90
53208;DHT22;39093;52.788;6.940;2023-07-13T05:32:37;16.20;99.90
53208;DHT22;39093;52.788;6.940;2023-07-13T05:35:05;16.20;99.90
53208;DHT22;39093;52.788;6.940;2023-07-13T05:37:32;16.20;99.90
53208;DHT22;39093;52.788;6.940;2023-07-13T05:39:59;16.30;99.90
53208;DHT22;39093;52.788;6.940;2023-07-13T05:42:26;16.30;99.90
53208;DHT22;39093;52.788;6.940;2023-07-13T05:44:58;16.40;99.90
53208;DHT22;39093;52.788;6.940;2023-07-13T05:47:25;16.40;99.90
53208;DHT22;39093;52.788;6.940;2023-07-13T05:49:52;16.40;99.90
53208;DHT22;39093;52.788;6.940;2023-07-13T05:52:19;16.50;99.90
53208;DHT22;39093;52.788;6.940;2023-07-13T05:54:46;16.50;99.90
53208;DHT22;39093;52.788;6.940;2023-07-13T05:57:13;16.50;99.90
53208;DHT22;39093;52.788;6.940;2023-07-13T05:59:43;16.60;99.90
53208;DHT22;39093;52.788;6.940;2023-07-13T06:02:10;16.60;99.90
53208;DHT22;39093;52.788;6.940;2023-07-13T06:04:40;16.70;99.90
53208;DHT22;39093;52.788;6.940;2023-07-13T06:07:07;16.80;99.90
53208;DHT22;39093;52.788;6.940;2023-07-13T06:09:34;16.90;99.90
53208;DHT22;39093;52.788;6.940;2023-07-13T06:12:05;16.80;99.90
53208;DHT22;39093;52.788;6.940;2023-07-13T06:14:34;16.80;99.90
53208;DHT22;39093;52.788;6.940;2023-07-13T06:17:01;17.00;99.90
53208;DHT22;39093;52.788;6.940;2023-07-13T06:19:29;17.10;99.90
53208;DHT22;39093;52.788;6.940;2023-07-13T06:21:56;17.00;99.90
53208;DHT22;39093;52.788;6.940;2023-07-13T06:24:25;17.00;99.90
53208;DHT22;39093;52.788;6.940;2023-07-13T06:26:52;17.10;99.90
53208;DHT22;39093;52.788;6.940;2023-07-13T06:29:19;17.20;99.90
53208;DHT22;39093;52.788;6.940;2023-07-13T06:31:46;17.30;99.90
53208;DHT22;39093;52.788;6.940;2023-07-13T06:34:13;17.40;99.90
53208;DHT22;39093;52.788;6.940;2023-07-13T06:36:40;17.70;99.90
53208;DHT22;39093;52.788;6.940;2023-07-13T06:39:09;17.90;99.90
53208;DHT22;39093;52.788;6.940;2023-07-13T06:41:36;18.20;99.90
53208;DHT22;39093;52.788;6.940;2023-07-13T06:44:03;18.40;99.90
53208;DHT22;39093;52.788;6.940;2023-07-13T06:46:30;18.70;99.90
53208;DHT22;39093;52.788;6.940;2023-07-13T06:48:57;18.90;99.90
53208;DHT22;39093;52.788;6.940;2023-07-13T06:51:24;19.10;99.90
53208;DHT22;39093;52.788;6.940;2023-07-13T06:53:50;19.30;99.90
53208;DHT22;39093;52.788;6.940;2023-07-13T06:56:18;19.50;99.90
53208;DHT22;39093;52.788;6.940;2023-07-13T06:58:44;19.60;99.90
53208;DHT22;39093;52.788;6.940;2023-07-13T07:01:11;19.80;99.90
53208;DHT22;39093;52.788;6.940;2023-07-13T07:03:39;19.80;99.90
53208;DHT22;39093;52.788;6.940;2023-07-13T07:08:36;20.20;99.90
53208;DHT22;39093;52.788;6.940;2023-07-13T07:11:03;20.30;99.90
53208;DHT22;39093;52.788;6.940;2023-07-13T07:13:29;20.20;99.90
53208;DHT22;39093;52.788;6.940;2023-07-13T07:15:57;20.40;99.90
53208;DHT22;39093;52.788;6.940;2023-07-13T07:18:24;20.50;99.90
53208;DHT22;39093;52.788;6.940;2023-07-13T07:20:50;20.50;99.90
53208;DHT22;39093;52.788;6.940;2023-07-13T07:23:17;20.30;99.90
53208;DHT22;39093;52.788;6.940;2023-07-13T07:25:45;20.30;99.90
53208;DHT22;39093;52.788;6.940;2023-07-13T07:28:16;20.10;99.90
53208;DHT22;39093;52.788;6.940;2023-07-13T07:30:49;20.00;99.90
53208;DHT22;39093;52.788;6.940;2023-07-13T07:33:38;19.80;99.90
53208;DHT22;39093;52.788;6.940;2023-07-13T07:36:05;19.80;99.90
53208;DHT22;39093;52.788;6.940;2023-07-13T07:38:35;19.70;99.90
53208;DHT22;39093;52.788;6.940;2023-07-13T07:41:04;19.70;99.90
53208;DHT22;39093;52.788;6.940;2023-07-13T07:43:34;19.80;99.90
53208;DHT22;39093;52.788;6.940;2023-07-13T07:46:01;19.60;99.90
53208;DHT22;39093;52.788;6.940;2023-07-13T07:48:29;19.50;99.90
53208;DHT22;39093;52.788;6.940;2023-07-13T07:50:57;19.40;99.90
53208;DHT22;39093;52.788;6.940;2023-07-13T07:53:24;19.40;99.90
53208;DHT22;39093;52.788;6.940;2023-07-13T07:55:51;19.30;99.90
53208;DHT22;39093;52.788;6.940;2023-07-13T07:58:21;19.30;99.90
53208;DHT22;39093;52.788;6.940;2023-07-13T08:00:51;19.30;99.90
53208;DHT22;39093;52.788;6.940;2023-07-13T08:03:21;19.20;99.90
53208;DHT22;39093;52.788;6.940;2023-07-13T08:05:53;19.20;99.90
53208;DHT22;39093;52.788;6.940;2023-07-13T08:08:24;19.40;99.90
53208;DHT22;39093;52.788;6.940;2023-07-13T08:10:51;19.40;99.90
53208;DHT22;39093;52.788;6.940;2023-07-13T08:13:25;19.40;99.90
53208;DHT22;39093;52.788;6.940;2023-07-13T08:15:52;19.50;99.90
53208;DHT22;39093;52.788;6.940;2023-07-13T08:18:20;19.40;99.90
53208;DHT22;39093;52.788;6.940;2023-07-13T08:20:47;19.50;99.90
53208;DHT22;39093;52.788;6.940;2023-07-13T08:23:14;19.60;99.90
53208;DHT22;39093;52.788;6.940;2023-07-13T08:25:50;19.60;99.90
53208;DHT22;39093;52.788;6.940;2023-07-13T08:28:20;19.70;99.90
53208;DHT22;39093;52.788;6.940;2023-07-13T08:30:49;19.70;99.90
53208;DHT22;39093;52.788;6.940;2023-07-13T08:33:17;19.90;99.90
53208;DHT22;39093;52.788;6.940;2023-07-13T08:35:48;19.80;99.90
53208;DHT22;39093;52.788;6.940;2023-07-13T08:38:16;19.90;99.90
53208;DHT22;39093;52.788;6.940;2023-07-13T08:40:44;19.90;99.90
53208;DHT22;39093;52.788;6.940;2023-07-13T08:43:18;20.00;99.90
53208;DHT22;39093;52.788;6.940;2023-07-13T08:48:24;20.10;99.90
53208;DHT22;39093;52.788;6.940;2023-07-13T08:53:43;20.20;99.90
53208;DHT22;39093;52.788;6.940;2023-07-13T08:56:21;20.20;99.90
53208;DHT22;39093;52.788;6.940;2023-07-13T08:58:53;20.30;99.90
53208;DHT22;39093;52.788;6.940;2023-07-13T09:01:38;20.40;99.90
53208;DHT22;39093;52.788;6.940;2023-07-13T09:04:14;20.60;99.90
53208;DHT22;39093;52.788;6.940;2023-07-13T09:07:04;20.60;99.90
53208;DHT22;39093;52.788;6.940;2023-07-13T09:12:19;21.00;99.90
53208;DHT22;39093;52.788;6.940;2023-07-13T09:14:51;21.10;99.90
53208;DHT22;39093;52.788;6.940;2023-07-13T09:17:29;21.20;99.90
53208;DHT22;39093;52.788;6.940;2023-07-13T09:20:21;20.90;99.90
53208;DHT22;39093;52.788;6.940;2023-07-13T09:22:50;20.60;99.90
53208;DHT22;39093;52.788;6.940;2023-07-13T09:25:31;20.40;99.90
53208;DHT22;39093;52.788;6.940;2023-07-13T09:28:24;20.10;99.90
53208;DHT22;39093;52.788;6.940;2023-07-13T09:31:17;19.50;99.90
53208;DHT22;39093;52.788;6.940;2023-07-13T09:33:42;19.00;99.90
53208;DHT22;39093;52.788;6.940;2023-07-13T09:36:24;18.50;99.90
53208;DHT22;39093;52.788;6.940;2023-07-13T09:44:16;16.80;99.90
53208;DHT22;39093;52.788;6.940;2023-07-13T09:46:52;16.70;99.90
53208;DHT22;39093;52.788;6.940;2023-07-13T09:49:34;16.40;99.90
53208;DHT22;39093;52.788;6.940;2023-07-13T09:52:21;15.90;99.90
53208;DHT22;39093;52.788;6.940;2023-07-13T09:54:54;15.80;99.90
53208;DHT22;39093;52.788;6.940;2023-07-13T09:57:27;15.70;99.90
53208;DHT22;39093;52.788;6.940;2023-07-13T10:00:25;15.50;99.90
53208;DHT22;39093;52.788;6.940;2023-07-13T10:05:41;15.50;99.90
53208;DHT22;39093;52.788;6.940;2023-07-13T10:08:25;15.60;99.90
53208;DHT22;39093;52.788;6.940;2023-07-13T10:10:59;15.60;99.90
53208;DHT22;39093;52.788;6.940;2023-07-13T10:15:55;15.80;99.90
53208;DHT22;39093;52.788;6.940;2023-07-13T10:18:24;16.00;99.90
53208;DHT22;39093;52.788;6.940;2023-07-13T10:21:12;16.10;99.90
53208;DHT22;39093;52.788;6.940;2023-07-13T10:24:17;16.30;99.90
53208;DHT22;39093;52.788;6.940;2023-07-13T10:27:00;16.50;99.90
53208;DHT22;39093;52.788;6.940;2023-07-13T10:29:36;16.60;99.90
53208;DHT22;39093;52.788;6.940;2023-07-13T10:32:09;16.90;99.90
53208;DHT22;39093;52.788;6.940;2023-07-13T10:34:39;17.20;99.90
53208;DHT22;39093;52.788;6.940;2023-07-13T10:37:17;17.30;99.90
53208;DHT22;39093;52.788;6.940;2023-07-13T10:39:45;17.50;99.90
53208;DHT22;39093;52.788;6.940;2023-07-13T10:42:18;17.60;99.90
53208;DHT22;39093;52.788;6.940;2023-07-13T10:44:49;17.70;99.90
53208;DHT22;39093;52.788;6.940;2023-07-13T10:47:16;17.80;99.90
53208;DHT22;39093;52.788;6.940;2023-07-13T10:49:45;17.70;99.90
53208;DHT22;39093;52.788;6.940;2023-07-13T11:01:14;18.80;99.90
53208;DHT22;39093;52.788;6.940;2023-07-13T11:04:01;19.20;99.90
53208;DHT22;39093;52.788;6.940;2023-07-13T11:06:50;19.40;99.90
53208;DHT22;39093;52.788;6.940;2023-07-13T11:09:35;19.60;99.90
53208;DHT22;39093;52.788;6.940;2023-07-13T11:15:03;19.90;99.90
53208;DHT22;39093;52.788;6.940;2023-07-13T11:17:37;20.00;99.90
53208;DHT22;39093;52.788;6.940;2023-07-13T11:23:37;20.10;99.90
53208;DHT22;39093;52.788;6.940;2023-07-13T11:25:39;20.40;99.90
53208;DHT22;39093;52.788;6.940;2023-07-13T11:30:49;20.50;99.90
53208;DHT22;39093;52.788;6.940;2023-07-13T11:38:38;20.00;99.90
53208;DHT22;39093;52.788;6.940;2023-07-13T11:41:18;19.60;99.90
53208;DHT22;39093;52.788;6.940;2023-07-13T11:43:49;19.40;99.90
53208;DHT22;39093;52.788;6.940;2023-07-13T11:46:23;19.20;99.90
53208;DHT22;39093;52.788;6.940;2023-07-13T11:48:51;19.10;99.90
53208;DHT22;39093;52.788;6.940;2023-07-13T11:51:34;19.00;99.90
53208;DHT22;39093;52.788;6.940;2023-07-13T11:54:43;19.10;99.90
53208;DHT22;39093;52.788;6.940;2023-07-13T11:57:28;19.20;99.90
53208;DHT22;39093;52.788;6.940;2023-07-13T12:00:04;19.70;99.90
53208;DHT22;39093;52.788;6.940;2023-07-13T12:02:43;20.20;99.90
53208;DHT22;39093;52.788;6.940;2023-07-13T12:05:14;20.60;99.90
53208;DHT22;39093;52.788;6.940;2023-07-13T12:07:41;21.00;99.90
53208;DHT22;39093;52.788;6.940;2023-07-13T12:12:37;21.50;99.90
53208;DHT22;39093;52.788;6.940;2023-07-13T12:15:07;21.40;99.90
53208;DHT22;39093;52.788;6.940;2023-07-13T12:17:35;21.30;99.90
53208;DHT22;39093;52.788;6.940;2023-07-13T12:20:44;21.30;99.90
53208;DHT22;39093;52.788;6.940;2023-07-13T12:23:07;21.60;99.90
53208;DHT22;39093;52.788;6.940;2023-07-13T12:25:42;21.70;99.90
53208;DHT22;39093;52.788;6.940;2023-07-13T12:28:21;21.80;99.90
53208;DHT22;39093;52.788;6.940;2023-07-13T12:30:49;21.90;99.90
53208;DHT22;39093;52.788;6.940;2023-07-13T12:33:16;22.20;99.90
53208;DHT22;39093;52.788;6.940;2023-07-13T12:35:49;22.60;99.90
53208;DHT22;39093;52.788;6.940;2023-07-13T12:38:16;22.90;99.90
53208;DHT22;39093;52.788;6.940;2023-07-13T12:40:43;23.30;99.90
53208;DHT22;39093;52.788;6.940;2023-07-13T12:43:12;23.50;99.90
53208;DHT22;39093;52.788;6.940;2023-07-13T12:46:04;23.40;99.90
53208;DHT22;39093;52.788;6.940;2023-07-13T12:48:38;23.20;99.90
53208;DHT22;39093;52.788;6.940;2023-07-13T12:51:15;22.90;99.90
53208;DHT22;39093;52.788;6.940;2023-07-13T12:53:48;22.60;99.90
53208;DHT22;39093;52.788;6.940;2023-07-13T12:56:21;22.20;99.90
53208;DHT22;39093;52.788;6.940;2023-07-13T12:58:50;21.90;99.90
53208;DHT22;39093;52.788;6.940;2023-07-13T13:01:22;21.50;99.90
53208;DHT22;39093;52.788;6.940;2023-07-13T13:03:53;21.20;99.90
53208;DHT22;39093;52.788;6.940;2023-07-13T13:06:26;21.00;99.90
53208;DHT22;39093;52.788;6.940;2023-07-13T13:08:58;20.90;99.90
53208;DHT22;39093;52.788;6.940;2023-07-13T13:11:28;20.60;99.90
53208;DHT22;39093;52.788;6.940;2023-07-13T13:13:58;20.40;99.90
53208;DHT22;39093;52.788;6.940;2023-07-13T13:16:54;20.50;99.90
53208;DHT22;39093;52.788;6.940;2023-07-13T13:19:27;20.80;99.90
53208;DHT22;39093;52.788;6.940;2023-07-13T13:21:55;21.00;99.90
53208;DHT22;39093;52.788;6.940;2023-07-13T13:24:26;21.30;99.90
53208;DHT22;39093;52.788;6.940;2023-07-13T13:26:54;21.90;99.90
53208;DHT22;39093;52.788;6.940;2023-07-13T13:29:25;22.50;99.90
53208;DHT22;39093;52.788;6.940;2023-07-13T13:31:54;22.80;99.90
53208;DHT22;39093;52.788;6.940;2023-07-13T13:34:22;22.70;99.90
53208;DHT22;39093;52.788;6.940;2023-07-13T13:36:56;22.30;99.90
53208;DHT22;39093;52.788;6.940;2023-07-13T13:39:35;22.50;99.90
53208;DHT22;39093;52.788;6.940;2023-07-13T13:42:03;23.00;99.90
53208;DHT22;39093;52.788;6.940;2023-07-13T13:44:31;23.50;99.90
53208;DHT22;39093;52.788;6.940;2023-07-13T13:47:42;23.80;99.90
53208;DHT22;39093;52.788;6.940;2023-07-13T13:50:12;24.00;99.90
53208;DHT22;39093;52.788;6.940;2023-07-13T13:52:44;24.60;99.90
53208;DHT22;39093;52.788;6.940;2023-07-13T13:55:16;25.00;99.90
53208;DHT22;39093;52.788;6.940;2023-07-13T13:57:47;25.10;97.50
53208;DHT22;39093;52.788;6.940;2023-07-13T14:00:15;24.80;96.10
53208;DHT22;39093;52.788;6.940;2023-07-13T14:02:47;24.90;97.80
53208;DHT22;39093;52.788;6.940;2023-07-13T14:05:21;25.20;97.60
53208;DHT22;39093;52.788;6.940;2023-07-13T14:07:52;25.50;96.00
53208;DHT22;39093;52.788;6.940;2023-07-13T14:10:20;25.90;96.90
53208;DHT22;39093;52.788;6.940;2023-07-13T14:12:50;26.30;94.60
53208;DHT22;39093;52.788;6.940;2023-07-13T14:17:53;26.90;92.10
53208;DHT22;39093;52.788;6.940;2023-07-13T14:20:23;27.10;94.40
53208;DHT22;39093;52.788;6.940;2023-07-13T14:22:52;27.20;90.20
53208;DHT22;39093;52.788;6.940;2023-07-13T14:25:20;27.50;92.30
53208;DHT22;39093;52.788;6.940;2023-07-13T14:27:51;27.60;92.00
53208;DHT22;39093;52.788;6.940;2023-07-13T14:30:21;27.70;90.20
53208;DHT22;39093;52.788;6.940;2023-07-13T14:32:48;27.70;90.50
53208;DHT22;39093;52.788;6.940;2023-07-13T14:35:24;28.00;90.00
53208;DHT22;39093;52.788;6.940;2023-07-13T14:37:52;27.90;85.90
53208;DHT22;39093;52.788;6.940;2023-07-13T14:40:31;28.20;90.20
53208;DHT22;39093;52.788;6.940;2023-07-13T14:42:58;28.60;82.30
53208;DHT22;39093;52.788;6.940;2023-07-13T14:45:26;28.70;84.40
53208;DHT22;39093;52.788;6.940;2023-07-13T14:47:53;28.80;83.80
53208;DHT22;39093;52.788;6.940;2023-07-13T14:50:31;28.60;82.70
53208;DHT22;39093;52.788;6.940;2023-07-13T14:52:59;28.40;83.40
53208;DHT22;39093;52.788;6.940;2023-07-13T14:55:26;28.60;83.90
53208;DHT22;39093;52.788;6.940;2023-07-13T14:57:53;28.90;86.20
53208;DHT22;39093;52.788;6.940;2023-07-13T15:00:27;29.20;82.60
53208;DHT22;39093;52.788;6.940;2023-07-13T15:02:56;29.20;81.70
53208;DHT22;39093;52.788;6.940;2023-07-13T15:05:27;28.90;79.30
53208;DHT22;39093;52.788;6.940;2023-07-13T15:07:58;29.00;79.60
53208;DHT22;39093;52.788;6.940;2023-07-13T15:10:29;28.90;79.70
53208;DHT22;39093;52.788;6.940;2023-07-13T15:13:01;29.00;79.80
53208;DHT22;39093;52.788;6.940;2023-07-13T15:15:44;29.20;79.90
53208;DHT22;39093;52.788;6.940;2023-07-13T15:18:13;29.30;79.70
53208;DHT22;39093;52.788;6.940;2023-07-13T15:20:40;29.20;75.40
53208;DHT22;39093;52.788;6.940;2023-07-13T15:23:12;29.20;77.80
53208;DHT22;39093;52.788;6.940;2023-07-13T15:25:40;29.30;76.70
53208;DHT22;39093;52.788;6.940;2023-07-13T15:28:07;29.30;76.40
53208;DHT22;39093;52.788;6.940;2023-07-13T15:30:45;29.20;78.80
53208;DHT22;39093;52.788;6.940;2023-07-13T15:33:24;29.40;76.00
53208;DHT22;39093;52.788;6.940;2023-07-13T15:35:53;29.20;74.90
53208;DHT22;39093;52.788;6.940;2023-07-13T15:38:22;29.00;74.10
53208;DHT22;39093;52.788;6.940;2023-07-13T15:40:50;28.50;73.60
53208;DHT22;39093;52.788;6.940;2023-07-13T15:43:18;27.70;74.90
53208;DHT22;39093;52.788;6.940;2023-07-13T15:45:47;26.70;78.80
53208;DHT22;39093;52.788;6.940;2023-07-13T15:48:19;26.00;81.40
53208;DHT22;39093;52.788;6.940;2023-07-13T15:51:10;25.40;82.40
53208;DHT22;39093;52.788;6.940;2023-07-13T15:53:39;24.90;83.90
53208;DHT22;39093;52.788;6.940;2023-07-13T15:56:28;24.40;84.00
53208;DHT22;39093;52.788;6.940;2023-07-13T15:58:56;24.10;83.30
53208;DHT22;39093;52.788;6.940;2023-07-13T16:01:24;23.80;84.30
53208;DHT22;39093;52.788;6.940;2023-07-13T16:03:51;23.60;85.20
53208;DHT22;39093;52.788;6.940;2023-07-13T16:06:22;23.50;85.80
53208;DHT22;39093;52.788;6.940;2023-07-13T16:08:52;23.40;86.60
53208;DHT22;39093;52.788;6.940;2023-07-13T16:11:33;23.30;87.60
53208;DHT22;39093;52.788;6.940;2023-07-13T16:14:01;23.20;85.50
53208;DHT22;39093;52.788;6.940;2023-07-13T16:16:30;23.10;85.60
53208;DHT22;39093;52.788;6.940;2023-07-13T16:18:59;23.00;85.40
53208;DHT22;39093;52.788;6.940;2023-07-13T16:21:29;22.90;84.50
53208;DHT22;39093;52.788;6.940;2023-07-13T16:24:00;22.80;85.90
53208;DHT22;39093;52.788;6.940;2023-07-13T16:26:32;22.70;85.20
53208;DHT22;39093;52.788;6.940;2023-07-13T16:29:17;22.70;85.30
53208;DHT22;39093;52.788;6.940;2023-07-13T16:32:12;22.50;85.30
53208;DHT22;39093;52.788;6.940;2023-07-13T16:34:41;22.40;85.80
53208;DHT22;39093;52.788;6.940;2023-07-13T16:37:19;22.30;86.40
53208;DHT22;39093;52.788;6.940;2023-07-13T16:39:51;22.30;87.40
53208;DHT22;39093;52.788;6.940;2023-07-13T16:42:22;22.20;86.80
53208;DHT22;39093;52.788;6.940;2023-07-13T16:44:49;22.10;86.90